Time;durP1;ratioP1;P1;durP2;ratioP2;P2;SDS_P1;SDS_P2;PMS_P1;PMS_P2;Temp;Humidity;BMP_temperature;BMP_pressure;BME280_temperature;BME280_humidity;BME280_pressure;Samples;Min_cycle;Max_cycle;Signal;HPM_P1;HPM_P2
2022/02/20 00:00:49;;;;;;;4.63;1.00;;;7.30;1.00;;;;;;5079239;28;20428;-75
2022/02/20 00:03:22;;;;;;;7.00;0.80;;;7.40;1.00;;;;;;5086574;28;20449;-74
2022/02/20 00:05:48;;;;;;;12.97;0.73;;;7.40;1.00;;;;;;5089820;28;20412;-74
2022/02/20 00:08:14;;;;;;;2.53;0.77;;;7.40;1.00;;;;;;5076850;28;20818;-74
2022/02/20 00:10:39;;;;;;;1.07;0.70;;;7.40;1.00;;;;;;5074708;28;20955;-73
2022/02/20 00:13:06;;;;;;;4.33;0.90;;;;;;;;;;5088332;28;20501;-73
2022/02/20 00:15:33;;;;;;;2.33;0.60;;;7.40;1.00;;;;;;5091276;28;20170;-74
2022/02/20 00:18:00;;;;;;;2.43;1.13;;;7.40;1.00;;;;;;5076662;28;20448;-73
2022/02/20 00:20:31;;;;;;;3.80;0.97;;;8.20;1.00;;;;;;5074566;28;20421;-74
2022/02/20 00:23:00;;;;;;;4.67;0.83;;;7.50;1.00;;;;;;5078983;28;20431;-73
2022/02/20 00:25:34;;;;;;;1.17;0.80;;;8.10;1.00;;;;;;5087901;28;20805;-74
2022/02/20 00:28:05;;;;;;;2.40;0.70;;;8.40;1.00;;;;;;5075548;28;20425;-74
2022/02/20 00:30:31;;;;;;;5.30;0.87;;;7.50;1.00;;;;;;5076938;28;20470;-73
2022/02/20 00:33:04;;;;;;;6.60;1.00;;;7.50;1.00;;;;;;5084802;28;20429;-75
2022/02/20 00:35:34;;;;;;;0.70;0.60;;;7.70;1.00;;;;;;5082054;28;20492;-75
2022/02/20 00:38:05;;;;;;;2.07;0.87;;;7.50;1.00;;;;;;5074286;28;20409;-75
2022/02/20 00:40:31;;;;;;;2.20;0.87;;;7.70;1.00;;;;;;5081045;28;20444;-75
2022/02/20 00:43:04;;;;;;;1.80;0.90;;;7.60;1.00;;;;;;5089149;28;20871;-76
2022/02/20 00:45:34;;;;;;;2.27;0.60;;;7.70;1.00;;;;;;5074399;28;20444;-76
2022/02/20 00:48:04;;;;;;;2.13;0.80;;;7.60;1.00;;;;;;5086970;28;20861;-73
2022/02/20 00:50:30;;;;;;;2.93;0.70;;;7.60;1.00;;;;;;5076357;28;20775;-74
2022/02/20 00:52:59;;;;;;;0.93;0.70;;;7.60;1.00;;;;;;5081153;28;20432;-74
2022/02/20 00:55:25;;;;;;;2.93;0.93;;;7.60;1.00;;;;;;5080110;28;20763;-74
2022/02/20 00:57:53;;;;;;;1.43;0.70;;;7.70;1.00;;;;;;5079816;28;20451;-73
2022/02/20 01:00:20;;;;;;;8.50;0.70;;;7.60;1.00;;;;;;5093736;28;20400;-74
2022/02/20 01:02:46;;;;;;;3.80;0.77;;;7.70;1.00;;;;;;5081672;28;20428;-73
2022/02/20 01:05:13;;;;;;;2.20;0.60;;;7.70;1.00;;;;;;5080385;28;20485;-75
2022/02/20 01:07:39;;;;;;;1.00;0.63;;;7.60;1.00;;;;;;5076855;28;20451;-74
2022/02/20 01:10:11;;;;;;;5.07;0.70;;;7.70;1.00;;;;;;5076626;28;20414;-74
2022/02/20 01:12:37;;;;;;;2.10;0.70;;;7.70;1.00;;;;;;5076952;28;20492;-73
2022/02/20 01:15:04;;;;;;;3.40;0.50;;;8.00;1.00;;;;;;5082767;28;20930;-74
2022/02/20 01:17:40;;;;;;;4.27;1.70;;;7.80;1.00;;;;;;5074199;28;20258;-74
2022/02/20 01:20:11;;;;;;;2.80;0.80;;;7.80;1.00;;;;;;5084994;28;20411;-74
2022/02/20 01:22:46;;;;;;;4.73;0.93;;;7.80;1.00;;;;;;5077575;28;20426;-73
2022/02/20 01:25:15;;;;;;;0.93;0.60;;;7.70;1.00;;;;;;5080170;28;20742;-74
2022/02/20 01:27:46;;;;;;;8.30;1.33;;;7.70;1.00;;;;;;5081507;28;20417;-74
2022/02/20 01:30:11;;;;;;;0.90;0.70;;;7.70;1.00;;;;;;5077963;28;20494;-74
2022/02/20 01:32:37;;;;;;;10.57;1.03;;;7.80;1.00;;;;;;5080528;28;20444;-74
2022/02/20 01:35:10;;;;;;;9.80;0.90;;;7.80;1.00;;;;;;5079917;28;20444;-75
2022/02/20 01:38:15;;;;;;;3.17;0.70;;;7.80;1.00;;;;;;5082167;28;20229;-76
2022/02/20 01:40:47;;;;;;;2.40;0.67;;;7.80;1.00;;;;;;5080455;28;20415;-75
2022/02/20 01:43:13;;;;;;;1.13;0.63;;;7.90;1.00;;;;;;5073870;28;20440;-75
2022/02/20 01:45:40;;;;;;;3.43;1.00;;;7.80;1.00;;;;;;5078196;28;20428;-75
2022/02/20 01:48:24;;;;;;;2.57;0.67;;;7.80;1.00;;;;;;5074121;28;20792;-76
2022/02/20 01:50:50;;;;;;;0.60;0.60;;;7.80;1.00;;;;;;5093805;28;20444;-76
2022/02/20 01:53:16;;;;;;;1.70;0.90;;;7.80;1.00;;;;;;5079351;28;20425;-76
2022/02/20 01:55:46;;;;;;;5.40;0.80;;;;;;;;;;5077041;28;20493;-75
2022/02/20 01:58:22;;;;;;;3.00;0.70;;;7.90;1.00;;;;;;5078339;28;20187;-75
2022/02/20 02:01:27;;;;;;;1.70;0.90;;;7.80;1.00;;;;;;5083760;28;20514;-76
2022/02/20 02:03:53;;;;;;;3.70;0.70;;;7.90;1.00;;;;;;5083760;28;20431;-73
2022/02/20 02:06:19;;;;;;;1.63;0.97;;;7.90;1.00;;;;;;5088414;28;20409;-74
2022/02/20 02:08:44;;;;;;;2.30;0.60;;;7.90;1.00;;;;;;5080544;28;20530;-74
2022/02/20 02:11:12;;;;;;;2.70;0.70;;;8.00;1.00;;;;;;5085681;28;20211;-74
2022/02/20 02:13:38;;;;;;;1.67;0.87;;;7.90;1.00;;;;;;5080822;28;20537;-74
2022/02/20 02:16:04;;;;;;;0.80;0.70;;;7.90;1.00;;;;;;5075118;28;20428;-74
2022/02/20 02:18:30;;;;;;;1.40;0.80;;;7.90;1.00;;;;;;5071979;28;20425;-73
2022/02/20 02:21:04;;;;;;;3.60;0.70;;;7.90;1.00;;;;;;5080480;28;20454;-75
2022/02/20 02:23:46;;;;;;;2.10;1.00;;;7.90;1.00;;;;;;5080278;28;20794;-76
2022/02/20 02:26:30;;;;;;;2.17;0.67;;;7.80;1.00;;;;;;5078952;28;20432;-76
2022/02/20 02:29:15;;;;;;;3.60;1.00;;;7.80;1.00;;;;;;5076740;28;20475;-76
2022/02/20 02:31:46;;;;;;;3.57;1.10;;;7.80;1.00;;;;;;5081055;28;20532;-76
2022/02/20 02:34:16;;;;;;;1.20;1.10;;;7.80;1.00;;;;;;5084559;28;20747;-74
2022/02/20 02:36:52;;;;;;;1.43;0.93;;;7.80;1.00;;;;;;5087494;28;20872;-74
2022/02/20 02:39:18;;;;;;;3.97;0.97;;;7.80;1.00;;;;;;5085634;28;20411;-73
2022/02/20 02:41:46;;;;;;;2.30;0.90;;;7.80;1.00;;;;;;5094361;28;20876;-73
2022/02/20 02:44:11;;;;;;;1.93;0.47;;;7.70;1.00;;;;;;5081991;28;20427;-74
2022/02/20 02:46:40;;;;;;;1.07;0.87;;;7.80;1.00;;;;;;5076435;28;20778;-74
2022/02/20 02:49:10;;;;;;;4.60;0.90;;;7.80;1.00;;;;;;5087091;28;20182;-75
2022/02/20 02:51:36;;;;;;;3.80;1.03;;;7.80;1.00;;;;;;5089309;28;20456;-76
2022/02/20 02:54:22;;;;;;;2.77;0.80;;;7.70;1.00;;;;;;5075883;28;20437;-76
2022/02/20 02:56:58;;;;;;;0.93;0.80;;;7.70;1.00;;;;;;5092611;28;20428;-76
2022/02/20 02:59:51;;;;;;;3.50;0.60;;;7.70;1.00;;;;;;5094706;28;20419;-76
2022/02/20 03:02:28;;;;;;;9.63;1.63;;;7.70;1.00;;;;;;5087938;28;20420;-76
2022/02/20 03:05:03;;;;;;;1.80;0.77;;;7.50;1.00;;;;;;5091273;28;20786;-74
2022/02/20 03:07:40;;;;;;;6.87;1.13;;;7.50;1.00;;;;;;5094008;28;20427;-73
2022/02/20 03:10:10;;;;;;;2.10;0.60;;;7.60;1.00;;;;;;5094953;28;20871;-74
2022/02/20 03:12:36;;;;;;;1.53;0.80;;;7.50;1.00;;;;;;5094432;28;20973;-74
2022/02/20 03:15:02;;;;;;;3.27;0.83;;;7.50;1.00;;;;;;5085868;28;20425;-74
2022/02/20 03:17:29;;;;;;;1.67;1.10;;;7.40;1.00;;;;;;5078319;28;20626;-74
2022/02/20 03:19:55;;;;;;;0.70;0.60;;;7.40;1.00;;;;;;5082908;28;20425;-74
2022/02/20 03:22:28;;;;;;;4.43;1.00;;;7.40;1.00;;;;;;5087925;28;20421;-74
2022/02/20 03:24:53;;;;;;;1.13;1.03;;;7.30;1.00;;;;;;5076193;28;20260;-74
2022/02/20 03:27:22;;;;;;;2.50;0.80;;;7.30;1.00;;;;;;5077365;28;20445;-74
2022/02/20 03:29:52;;;;;;;3.57;1.13;;;7.20;1.00;;;;;;5084730;28;20183;-74
2022/02/20 03:32:18;;;;;;;2.70;0.80;;;7.20;1.00;;;;;;5084998;28;20461;-74
2022/02/20 03:34:46;;;;;;;0.50;0.40;;;7.20;1.00;;;;;;5075561;28;20433;-75
2022/02/20 03:37:11;;;;;;;1.33;0.73;;;7.20;1.00;;;;;;5094088;28;20162;-74
2022/02/20 03:39:40;;;;;;;5.03;0.67;;;7.20;1.00;;;;;;5087484;28;20909;-74
2022/02/20 03:42:06;;;;;;;3.10;0.90;;;7.20;1.00;;;;;;5080782;28;20166;-74
2022/02/20 03:44:31;;;;;;;2.77;0.70;;;7.20;1.00;;;;;;5074189;28;20432;-74
2022/02/20 03:46:58;;;;;;;0.60;0.60;;;7.20;1.00;;;;;;5079451;28;20261;-74
2022/02/20 03:49:28;;;;;;;5.43;1.03;;;7.20;1.00;;;;;;5081178;28;20183;-74
2022/02/20 03:51:58;;;;;;;3.60;0.80;;;7.10;1.00;;;;;;5094581;28;20957;-75
2022/02/20 03:54:23;;;;;;;2.00;0.70;;;7.20;1.00;;;;;;5091178;28;20437;-73
2022/02/20 03:56:52;;;;;;;0.70;0.70;;;7.10;1.00;;;;;;5094004;28;20465;-74
2022/02/20 03:59:34;;;;;;;1.23;0.80;;;7.10;1.00;;;;;;5080334;28;20166;-74
2022/02/20 04:01:59;;;;;;;2.33;0.57;;;7.10;1.00;;;;;;5085178;28;20432;-74
2022/02/20 04:04:25;;;;;;;2.67;0.80;;;7.10;1.00;;;;;;5091663;28;20401;-74
2022/02/20 04:06:58;;;;;;;0.80;0.70;;;7.10;1.00;;;;;;5083523;28;20250;-75
2022/02/20 04:09:34;;;;;;;1.83;0.63;;;7.10;1.00;;;;;;5075372;28;20554;-75
2022/02/20 04:12:04;;;;;;;1.37;0.77;;;7.00;1.00;;;;;;5090961;28;20446;-76
2022/02/20 04:14:40;;;;;;;2.83;0.90;;;7.00;1.00;;;;;;5073147;28;20507;-76
2022/02/20 04:17:53;;;;;;;2.93;0.70;;;7.10;1.00;;;;;;5085005;28;20416;-76
2022/02/20 04:20:22;;;;;;;3.77;0.80;;;7.10;1.00;;;;;;4993768;28;20421;-74
2022/02/20 04:22:52;;;;;;;2.83;0.70;;;7.10;1.00;;;;;;4999783;28;20428;-74
2022/02/20 04:25:22;;;;;;;1.57;0.70;;;7.10;1.00;;;;;;5012824;28;20424;-74
2022/02/20 04:27:58;;;;;;;3.37;0.80;;;7.20;1.00;;;;;;5006087;28;20417;-74
2022/02/20 04:30:28;;;;;;;5.53;1.37;;;7.20;1.00;;;;;;5006337;28;20420;-73
2022/02/20 04:33:10;;;;;;;2.73;0.80;;;7.20;1.00;;;;;;5002697;28;20432;-75
2022/02/20 04:35:35;;;;;;;3.00;0.80;;;7.30;1.00;;;;;;5012846;28;20586;-74
2022/02/20 04:38:16;;;;;;;0.43;0.43;;;7.30;1.00;;;;;;5000762;28;21022;-74
2022/02/20 04:40:52;;;;;;;3.00;0.70;;;7.30;1.00;;;;;;4993201;28;20561;-74
2022/02/20 04:43:22;;;;;;;0.90;0.70;;;7.30;1.00;;;;;;4994462;28;20879;-74
2022/02/20 04:45:52;;;;;;;5.47;0.80;;;7.30;1.00;;;;;;5011625;28;20925;-74
2022/02/20 04:48:22;;;;;;;3.13;0.70;;;7.30;1.00;;;;;;5002613;28;20923;-74
2022/02/20 04:50:47;;;;;;;0.40;0.40;;;7.20;1.00;;;;;;5009210;28;20457;-74
2022/02/20 04:53:28;;;;;;;5.37;0.80;;;7.30;1.00;;;;;;5009380;28;20469;-75
2022/02/20 04:55:54;;;;;;;1.77;0.70;;;7.30;1.00;;;;;;5013198;28;20641;-74
2022/02/20 04:58:19;;;;;;;2.43;0.60;;;7.30;1.00;;;;;;5082937;28;20512;-74
2022/02/20 05:00:45;;;;;;;3.53;1.13;;;7.30;1.00;;;;;;5079376;28;20162;-74
2022/02/20 05:03:16;;;;;;;7.53;1.37;;;7.30;1.00;;;;;;5079083;28;20189;-74
2022/02/20 05:05:46;;;;;;;2.93;0.43;;;7.30;1.00;;;;;;5086819;28;20182;-75
2022/02/20 05:08:16;;;;;;;1.27;0.70;;;7.30;1.00;;;;;;5080430;28;20396;-75
2022/02/20 05:10:46;;;;;;;2.43;0.60;;;7.30;1.00;;;;;;5079151;28;20421;-75
2022/02/20 05:13:11;;;;;;;1.80;0.50;;;7.40;1.00;;;;;;5093692;28;20420;-75
2022/02/20 05:15:40;;;;;;;3.87;0.73;;;7.40;1.00;;;;;;5079625;28;20923;-75
2022/02/20 05:18:06;;;;;;;2.80;0.67;;;7.30;1.00;;;;;;5081501;28;20186;-75
2022/02/20 05:20:42;;;;;;;0.70;0.70;;;7.30;1.00;;;;;;5093397;28;20426;-75
2022/02/20 05:23:10;;;;;;;2.73;0.73;;;7.40;1.00;;;;;;5083618;28;20550;-75
2022/02/20 05:25:40;;;;;;;6.03;0.90;;;8.40;1.00;;;;;;5093822;28;20468;-75
2022/02/20 05:28:06;;;;;;;3.03;0.80;;;7.30;1.00;;;;;;5075328;28;20429;-75
2022/02/20 05:30:31;;;;;;;1.30;0.70;;;7.30;1.00;;;;;;5081785;28;20432;-75
2022/02/20 05:33:04;;;;;;;5.70;0.80;;;7.30;1.00;;;;;;5087733;28;20170;-75
2022/02/20 05:35:29;;;;;;;3.27;1.00;;;7.30;1.00;;;;;;5089832;28;20828;-74
2022/02/20 05:37:55;;;;;;;1.83;0.60;;;7.20;1.00;;;;;;5073363;28;20393;-75
2022/02/20 05:40:28;;;;;;;4.33;0.97;;;8.90;1.00;;;;;;5073479;28;20237;-77
2022/02/20 05:43:27;;;;;;;8.13;0.97;;;7.10;1.00;;;;;;5074597;28;20418;-75
2022/02/20 05:46:04;;;;;;;2.20;0.80;;;7.10;1.00;;;;;;5073547;28;20417;-75
2022/02/20 05:48:30;;;;;;;1.10;0.70;;;7.10;1.00;;;;;;5110397;28;20860;-75
2022/02/20 05:50:58;;;;;;;6.43;0.77;;;7.10;1.00;;;;;;5093616;28;20461;-74
2022/02/20 05:53:23;;;;;;;2.07;1.00;;;7.10;1.00;;;;;;5076102;28;20626;-74
2022/02/20 05:55:52;;;;;;;3.00;0.83;;;7.10;1.00;;;;;;5074138;28;20415;-74
2022/02/20 05:58:22;;;;;;;1.87;0.87;;;7.10;1.00;;;;;;5077257;28;20607;-74
2022/02/20 06:00:52;;;;;;;1.27;0.70;;;7.20;1.00;;;;;;5081525;28;20727;-74
2022/02/20 06:03:28;;;;;;;1.13;0.73;;;7.10;1.00;;;;;;5086238;28;20821;-74
2022/02/20 06:05:54;;;;;;;2.10;0.90;;;7.20;1.00;;;;;;5077669;28;20471;-75
2022/02/20 06:08:28;;;;;;;2.00;1.23;;;7.20;1.00;;;;;;5086165;28;20404;-76
2022/02/20 06:11:10;;;;;;;2.40;0.87;;;7.20;1.00;;;;;;5083565;28;20689;-75
2022/02/20 06:13:40;;;;;;;3.40;0.87;;;7.20;1.00;;;;;;5095401;28;20447;-75
2022/02/20 06:16:16;;;;;;;4.13;1.10;;;7.20;1.00;;;;;;5091143;28;20416;-75
2022/02/20 06:18:42;;;;;;;0.80;0.60;;;7.20;1.00;;;;;;5094198;28;20495;-75
2022/02/20 06:21:10;;;;;;;1.00;0.80;;;7.20;1.00;;;;;;5097815;28;20472;-74
2022/02/20 06:23:40;;;;;;;1.03;0.93;;;7.30;1.00;;;;;;5095586;28;20630;-74
2022/02/20 06:26:10;;;;;;;1.13;0.70;;;7.30;1.00;;;;;;5096875;28;20385;-74
2022/02/20 06:28:40;;;;;;;3.13;1.00;;;7.30;1.00;;;;;;5082667;28;20420;-74
2022/02/20 06:31:06;;;;;;;1.47;0.80;;;7.30;1.00;;;;;;5088180;28;20445;-74
2022/02/20 06:33:34;;;;;;;2.30;0.77;;;7.30;1.00;;;;;;5077164;28;20424;-74
2022/02/20 06:35:59;;;;;;;8.23;1.00;;;8.80;1.00;;;;;;5084211;28;20561;-74
2022/02/20 06:38:25;;;;;;;5.33;1.27;;;7.30;1.00;;;;;;5081566;28;20551;-74
2022/02/20 06:40:52;;;;;;;2.20;1.30;;;7.40;1.00;;;;;;5076618;28;20155;-74
2022/02/20 06:43:22;;;;;;;1.30;1.20;;;7.40;1.00;;;;;;5077663;28;20195;-74
2022/02/20 06:45:47;;;;;;;3.30;1.30;;;7.50;1.00;;;;;;5080538;28;20502;-74
2022/02/20 06:48:16;;;;;;;2.77;1.10;;;7.50;1.00;;;;;;5093600;28;20994;-74
2022/02/20 06:50:52;;;;;;;2.27;1.40;;;7.90;1.00;;;;;;5076322;28;20183;-74
2022/02/20 06:53:18;;;;;;;7.57;1.50;;;7.60;1.00;;;;;;5076752;28;20510;-76
2022/02/20 06:55:58;;;;;;;11.10;1.43;;;7.60;1.00;;;;;;5083384;28;20471;-78
2022/02/20 06:58:40;;;;;;;5.73;1.60;;;7.70;1.00;;;;;;5082817;28;20468;-78
2022/02/20 07:01:10;;;;;;;2.30;1.37;;;7.70;1.00;;;;;;5087632;28;20456;-78
2022/02/20 07:04:11;;;;;;;6.17;1.43;;;7.80;1.00;;;;;;5077066;28;20504;-78
2022/02/20 07:07:03;;;;;;;4.47;1.30;;;7.70;1.00;;;;;;5076555;28;20411;-77
2022/02/20 07:09:34;;;;;;;2.90;1.40;;;7.70;1.00;;;;;;5087584;28;20424;-77
2022/02/20 07:11:59;;;;;;;4.63;1.40;;;7.70;1.00;;;;;;5087605;28;20448;-77
2022/02/20 07:14:28;;;;;;;1.73;1.10;;;7.70;1.00;;;;;;5079140;28;20433;-78
2022/02/20 07:16:58;;;;;;;5.13;1.33;;;7.80;1.00;;;;;;5078132;28;20638;-77
2022/02/20 07:19:28;;;;;;;2.17;0.80;;;7.80;1.00;;;;;;5089427;28;20408;-77
2022/02/20 07:22:04;;;;;;;2.43;0.90;;;7.90;1.00;;;;;;5079462;28;20966;-76
2022/02/20 07:24:30;;;;;;;1.30;1.20;;;7.90;1.00;;;;;;5081838;28;20429;-76
2022/02/20 07:27:10;;;;;;;1.97;1.20;;;8.00;1.00;;;;;;5091640;28;20469;-77
2022/02/20 07:29:36;;;;;;;2.90;1.20;;;8.10;1.00;;;;;;5085260;28;20525;-77
2022/02/20 07:32:02;;;;;;;7.23;2.60;;;8.10;1.00;;;;;;5077923;28;20449;-76
2022/02/20 07:34:27;;;;;;;10.63;3.67;;;8.20;1.00;;;;;;5085285;28;20439;-77
2022/02/20 07:37:10;;;;;;;5.97;1.40;;;8.20;1.00;;;;;;5077467;28;20424;-76
2022/02/20 07:39:40;;;;;;;8.07;3.10;;;8.20;1.00;;;;;;5087109;28;20215;-76
2022/02/20 07:42:10;;;;;;;3.63;1.50;;;8.30;1.00;;;;;;5089832;28;20892;-76
2022/02/20 07:44:40;;;;;;;131.43;47.37;;;8.30;1.00;;;;;;5087979;28;20514;-76
2022/02/20 07:47:06;;;;;;;3.03;1.63;;;8.30;1.00;;;;;;5093322;28;20423;-75
2022/02/20 07:49:32;;;;;;;27.40;9.27;;;8.30;1.00;;;;;;5115235;28;20392;-74
2022/02/20 07:51:58;;;;;;;258.23;85.67;;;8.40;1.00;;;;;;5093393;28;20459;-74
2022/02/20 07:54:24;;;;;;;1.90;1.73;;;8.40;1.00;;;;;;5084782;28;20171;-74
2022/02/20 07:57:10;;;;;;;1.73;1.40;;;8.30;1.00;;;;;;5087742;28;20415;-74
2022/02/20 07:59:36;;;;;;;4.90;1.70;;;8.30;1.00;;;;;;5093424;28;20442;-74
2022/02/20 08:02:03;;;;;;;26.50;9.40;;;8.30;1.00;;;;;;5089177;28;20481;-74
2022/02/20 08:04:34;;;;;;;2.07;1.30;;;8.30;1.00;;;;;;5084581;28;20420;-74
2022/02/20 08:07:02;;;;;;;56.30;17.63;;;8.30;1.00;;;;;;5095364;28;20772;-74
2022/02/20 08:09:34;;;;;;;6.40;1.70;;;8.30;1.00;;;;;;5075102;28;20440;-75
2022/02/20 08:12:10;;;;;;;6.07;3.10;;;8.40;1.00;;;;;;5074557;28;20963;-75
2022/02/20 08:14:40;;;;;;;2.00;1.03;;;8.30;1.00;;;;;;5083884;28;20423;-75
2022/02/20 08:17:06;;;;;;;3.40;1.90;;;8.40;1.00;;;;;;5081514;28;20921;-76
2022/02/20 08:19:34;;;;;;;6.60;1.30;;;8.30;1.00;;;;;;5074453;28;20377;-75
2022/02/20 08:22:04;;;;;;;8.50;4.30;;;8.40;1.00;;;;;;5074408;28;20179;-74
2022/02/20 08:24:30;;;;;;;5.00;1.60;;;8.40;1.00;;;;;;5084424;28;20421;-75
2022/02/20 08:26:58;;;;;;;1.43;1.20;;;8.30;1.00;;;;;;5073118;28;20417;-76
2022/02/20 08:29:28;;;;;;;23.20;10.10;;;8.30;1.00;;;;;;5073055;28;20515;-75
2022/02/20 08:32:10;;;;;;;14.93;5.97;;;8.30;1.00;;;;;;5079660;28;20506;-75
2022/02/20 08:34:36;;;;;;;7.07;3.20;;;8.40;1.00;;;;;;5091532;28;20404;-76
2022/02/20 08:37:10;;;;;;;38.50;13.43;;;;;;;;;;5094330;28;20388;-74
2022/02/20 08:39:40;;;;;;;5.03;2.87;;;8.40;1.00;;;;;;5082008;28;20420;-77
2022/02/20 08:42:10;;;;;;;6.93;1.53;;;8.40;1.00;;;;;;5077264;28;20912;-78
2022/02/20 08:44:41;;;;;;;1.57;1.13;;;8.40;1.00;;;;;;5088766;28;20911;-78
2022/02/20 08:47:16;;;;;;;8.07;2.43;;;8.40;1.00;;;;;;5076120;28;20960;-78
2022/02/20 08:49:42;;;;;;;18.77;5.70;;;8.40;1.00;;;;;;5080632;28;20531;-77
2022/02/20 08:52:11;;;;;;;3.93;1.77;;;8.40;1.00;;;;;;5093506;28;20534;-77
2022/02/20 08:54:46;;;;;;;17.20;6.70;;;8.40;1.00;;;;;;5077004;28;20497;-77
2022/02/20 08:57:16;;;;;;;10.60;3.10;;;8.40;1.00;;;;;;5082525;28;20895;-77
2022/02/20 08:59:43;;;;;;;5.43;1.97;;;8.50;1.00;;;;;;5077958;28;20418;-77
2022/02/20 09:02:09;;;;;;;53.37;17.07;;;8.40;1.00;;;;;;5093961;28;20393;-77
2022/02/20 09:04:37;;;;;;;4.00;1.43;;;8.40;1.00;;;;;;5088467;28;20950;-77
2022/02/20 09:07:10;;;;;;;2.60;1.17;;;8.40;1.00;;;;;;5086786;28;20503;-78
2022/02/20 09:09:40;;;;;;;2.83;1.70;;;8.40;1.00;;;;;;5088704;28;20421;-78
2022/02/20 09:12:06;;;;;;;45.43;15.43;;;8.30;1.00;;;;;;5073958;28;20846;-78
2022/02/20 09:14:41;;;;;;;7.57;3.10;;;8.30;1.00;;;;;;5075041;28;20421;-78
2022/02/20 09:17:07;;;;;;;2.20;1.43;;;8.50;1.00;;;;;;5077542;28;20425;-78
2022/02/20 09:19:33;;;;;;;1.73;1.20;;;8.30;1.00;;;;;;5087978;28;20404;-78
2022/02/20 09:22:04;;;;;;;1.00;1.00;;;8.30;1.00;;;;;;5087880;28;20410;-78
2022/02/20 09:24:34;;;;;;;4.77;1.27;;;8.30;1.00;;;;;;5075889;28;20444;-77
2022/02/20 09:27:04;;;;;;;3.13;1.00;;;8.30;1.00;;;;;;5085773;28;20818;-76
2022/02/20 09:29:35;;;;;;;8.07;2.23;;;8.30;1.00;;;;;;5088200;28;20405;-76
2022/02/20 09:32:10;;;;;;;57.63;21.07;;;8.50;1.00;;;;;;5089542;28;20791;-76
2022/02/20 09:34:36;;;;;;;2.27;1.73;;;8.40;1.00;;;;;;5081077;28;20429;-76
2022/02/20 09:37:10;;;;;;;1.03;0.93;;;8.40;1.00;;;;;;5076255;28;20405;-78
2022/02/20 09:39:40;;;;;;;24.50;10.87;;;8.40;1.00;;;;;;5087193;28;20945;-73
2022/02/20 09:42:10;;;;;;;5.83;3.30;;;8.40;1.00;;;;;;5091288;28;20813;-74
2022/02/20 09:44:36;;;;;;;2.47;1.17;;;8.40;1.00;;;;;;5087632;28;20400;-74
2022/02/20 09:47:03;;;;;;;0.87;0.63;;;8.50;1.00;;;;;;5079549;28;20783;-74
2022/02/20 09:49:40;;;;;;;2.40;1.50;;;8.50;1.00;;;;;;5080071;28;20167;-74
2022/02/20 09:52:07;;;;;;;8.23;4.23;;;8.50;1.00;;;;;;5091246;28;20853;-75
2022/02/20 09:54:40;;;;;;;1.47;1.07;;;8.50;1.00;;;;;;5081701;28;20435;-77
2022/02/20 09:57:06;;;;;;;6.23;1.30;;;8.40;1.00;;;;;;5082255;28;20412;-75
2022/02/20 09:59:40;;;;;;;83.63;30.10;;;8.40;1.00;;;;;;5097301;28;20471;-79
2022/02/20 10:02:14;;;;;;;1.60;1.50;;;8.50;1.00;;;;;;5093577;28;20416;-79
2022/02/20 10:04:41;;;;;;;63.10;26.60;;;8.60;1.00;;;;;;5078087;28;20935;-81
2022/02/20 10:07:30;;;;;;;1.77;1.40;;;8.60;1.00;;;;;;5085423;28;20491;-79
2022/02/20 10:09:59;;;;;;;1.93;1.50;;;8.60;1.00;;;;;;5015536;28;20428;-78
2022/02/20 10:12:35;;;;;;;9.30;1.23;;;8.70;1.00;;;;;;5014973;28;20808;-78
2022/02/20 10:15:22;;;;;;;0.97;0.90;;;8.80;1.00;;;;;;5002852;28;20443;-79
2022/02/20 10:18:27;;;;;;;2.70;2.33;;;8.70;1.00;;;;;;4998253;28;20451;-78
2022/02/20 10:21:03;;;;;;;1.10;1.00;;;8.60;1.00;;;;;;4937526;29;20779;-80
2022/02/20 10:23:40;;;;;;;0.80;0.70;;;8.70;1.00;;;;;;4937210;29;20816;-74
2022/02/20 10:26:13;;;;;;;0.93;0.90;;;8.60;1.00;;;;;;4924534;29;20998;-74
2022/02/20 10:29:06;;;;;;;0.90;0.80;;;8.60;1.00;;;;;;4937098;29;20994;-74
2022/02/20 10:31:40;;;;;;;4.30;1.20;;;8.70;1.00;;;;;;4937429;29;20465;-73
2022/02/20 10:34:16;;;;;;;4.07;1.90;;;8.70;1.00;;;;;;4933746;29;20530;-74
2022/02/20 10:36:57;;;;;;;2.93;1.00;;;8.80;1.00;;;;;;4921185;29;20427;-74
2022/02/20 10:39:33;;;;;;;1.07;0.93;;;8.80;1.00;;;;;;4921070;29;20416;-74
2022/02/20 10:42:20;;;;;;;2.30;1.20;;;8.90;1.00;;;;;;4936606;29;20442;-73
2022/02/20 10:44:54;;;;;;;7.07;1.40;;;8.90;1.00;;;;;;4936766;29;20478;-75
2022/02/20 10:47:22;;;;;;;4.57;1.10;;;8.90;1.00;;;;;;4988790;28;20419;-74
2022/02/20 10:49:53;;;;;;;0.80;0.80;;;8.90;1.00;;;;;;5007381;28;20519;-74
2022/02/20 10:52:30;;;;;;;4.30;1.07;;;9.00;1.00;;;;;;5014700;28;20467;-74
2022/02/20 10:55:09;;;;;;;1.13;0.83;;;9.10;1.00;;;;;;5048698;28;20461;-77
2022/02/20 10:58:10;;;;;;;3.20;1.70;;;9.20;1.00;;;;;;5083831;28;20991;-76
2022/02/20 11:00:57;;;;;;;2.87;0.80;;;9.20;1.00;;;;;;5088567;28;20423;-77
2022/02/20 11:03:31;;;;;;;0.77;0.77;;;9.30;1.00;;;;;;5079882;28;20969;-77
2022/02/20 11:06:05;;;;;;;3.27;1.27;;;9.40;1.00;;;;;;5075815;28;20417;-77
2022/02/20 11:08:40;;;;;;;8.83;1.00;;;9.50;1.00;;;;;;5075959;28;20382;-76
2022/02/20 11:14:22;;;;;;;3.13;0.70;;;9.50;1.00;;;;;;5081729;28;20461;-77
2022/02/20 11:16:52;;;;;;;0.90;0.90;;;9.60;1.00;;;;;;5076668;28;20433;-78
2022/02/20 11:19:24;;;;;;;5.13;0.70;;;9.60;1.00;;;;;;5086111;28;21000;-77
2022/02/20 11:22:10;;;;;;;1.63;0.80;;;9.60;1.00;;;;;;5075567;28;20409;-77
2022/02/20 11:24:39;;;;;;;2.90;0.70;;;9.50;1.00;;;;;;5083741;28;20425;-74
2022/02/20 11:27:06;;;;;;;2.97;0.80;;;9.50;1.00;;;;;;5086801;28;20423;-74
2022/02/20 11:29:34;;;;;;;0.53;0.53;;;9.50;1.00;;;;;;5093430;28;20507;-74
2022/02/20 11:32:06;;;;;;;0.80;0.60;;;9.50;1.00;;;;;;5094453;28;20818;-75
2022/02/20 11:34:32;;;;;;;0.60;0.60;;;9.40;1.00;;;;;;5083760;28;20409;-74
2022/02/20 11:36:59;;;;;;;1.00;0.60;;;9.40;1.00;;;;;;5095873;28;20510;-74
2022/02/20 11:39:27;;;;;;;0.60;0.60;;;9.40;1.00;;;;;;5082425;28;20949;-74
2022/02/20 11:42:22;;;;;;;0.60;0.60;;;9.40;1.00;;;;;;5095618;28;20393;-74
2022/02/20 11:45:18;;;;;;;3.23;0.80;;;9.40;1.00;;;;;;5083274;28;20481;-74
2022/02/20 11:47:45;;;;;;;1.00;0.60;;;9.40;1.00;;;;;;5067689;28;20424;-74
2022/02/20 11:50:17;;;;;;;0.50;0.50;;;9.60;1.00;;;;;;5095483;28;20385;-75
2022/02/20 11:52:54;;;;;;;0.70;0.50;;;9.40;1.00;;;;;;5076851;28;20457;-74
2022/02/20 11:55:33;;;;;;;0.43;0.43;;;9.40;1.00;;;;;;5077002;28;20930;-74
2022/02/20 11:58:23;;;;;;;0.50;0.50;;;9.40;1.00;;;;;;5075122;28;20389;-74
2022/02/20 12:01:04;;;;;;;1.80;0.60;;;9.40;1.00;;;;;;5081329;28;20393;-74
2022/02/20 12:04:01;;;;;;;0.50;0.50;;;9.40;1.00;;;;;;5078921;28;20500;-74
2022/02/20 12:06:35;;;;;;;4.43;0.60;;;9.40;1.00;;;;;;5076918;28;20904;-73
2022/02/20 12:09:23;;;;;;;0.50;0.50;;;9.50;1.00;;;;;;5074901;28;20408;-76
2022/02/20 12:11:52;;;;;;;0.40;0.40;;;9.50;1.00;;;;;;5075184;28;20449;-76
2022/02/20 12:14:25;;;;;;;0.50;0.50;;;9.60;1.00;;;;;;5078469;28;20440;-77
2022/02/20 12:17:09;;;;;;;1.40;1.40;;;9.60;1.00;;;;;;5074626;28;20437;-77
2022/02/20 12:19:59;;;;;;;0.57;0.50;;;9.60;1.00;;;;;;5093688;28;20413;-77
2022/02/20 12:23:07;;;;;;;0.50;0.50;;;9.60;1.00;;;;;;5084918;28;20415;-78
2022/02/20 12:26:00;;;;;;;1.63;0.47;;;9.60;1.00;;;;;;5087936;28;20507;-77
2022/02/20 12:29:03;;;;;;;0.60;0.60;;;9.60;1.00;;;;;;5074606;28;20417;-78
2022/02/20 12:31:32;;;;;;;0.43;0.43;;;9.60;1.00;;;;;;5079611;28;20440;-78
2022/02/20 12:33:58;;;;;;;0.40;0.40;;;9.60;1.00;;;;;;5075732;28;20421;-77
2022/02/20 12:36:30;;;;;;;0.30;0.30;;;9.50;1.00;;;;;;5074204;28;20416;-77
2022/02/20 12:39:13;;;;;;;0.40;0.40;;;9.50;1.00;;;;;;5074099;28;20390;-77
2022/02/20 12:41:39;;;;;;;0.43;0.43;;;9.50;1.00;;;;;;5084983;28;20424;-75
2022/02/20 12:44:10;;;;;;;0.40;0.40;;;9.60;1.00;;;;;;5087674;28;20425;-75
2022/02/20 12:46:36;;;;;;;0.80;0.40;;;9.60;1.00;;;;;;5082244;28;20612;-74
2022/02/20 12:49:04;;;;;;;0.40;0.40;;;9.70;1.00;;;;;;5078673;28;20449;-73
2022/02/20 12:51:38;;;;;;;0.40;0.40;;;9.70;1.00;;;;;;5086675;28;20452;-74
2022/02/20 12:54:03;;;;;;;0.97;0.40;;;9.70;1.00;;;;;;5085317;28;20474;-75
2022/02/20 12:56:29;;;;;;;0.40;0.30;;;9.70;1.00;;;;;;5090326;28;20410;-75
2022/02/20 12:59:02;;;;;;;0.50;0.47;;;9.70;1.00;;;;;;5073779;28;20760;-74
2022/02/20 13:01:34;;;;;;;0.30;0.30;;;9.60;1.00;;;;;;5075635;28;20933;-74
2022/02/20 13:04:04;;;;;;;4.57;0.53;;;9.60;1.00;;;;;;5087015;28;20440;-75
2022/02/20 13:06:42;;;;;;;0.30;0.30;;;9.70;1.00;;;;;;5092748;28;20482;-74
2022/02/20 13:09:10;;;;;;;0.40;0.30;;;9.60;1.00;;;;;;5083245;28;20401;-74
2022/02/20 13:11:52;;;;;;;0.40;0.30;;;9.60;1.00;;;;;;5078462;28;20464;-79
2022/02/20 13:14:28;;;;;;;0.97;0.40;;;9.70;1.00;;;;;;5088419;28;20409;-79
2022/02/20 13:17:04;;;;;;;0.40;0.40;;;9.60;1.00;;;;;;5084819;28;20915;-77
2022/02/20 13:19:34;;;;;;;0.40;0.30;;;9.70;1.00;;;;;;5092591;28;20438;-77
2022/02/20 13:22:11;;;;;;;0.30;0.30;;;9.70;1.00;;;;;;5080802;28;21069;-79
2022/02/20 13:24:57;;;;;;;0.60;0.40;;;9.70;1.00;;;;;;5080397;28;20460;-79
2022/02/20 13:27:44;;;;;;;0.40;0.30;;;9.70;1.00;;;;;;5073502;28;20946;-78
2022/02/20 13:30:33;;;;;;;0.40;0.40;;;9.70;1.00;;;;;;5083619;28;20768;-77
2022/02/20 13:33:14;;;;;;;0.70;0.50;;;9.70;1.00;;;;;;5091299;28;20448;-75
2022/02/20 13:36:03;;;;;;;0.40;0.40;;;9.70;1.00;;;;;;5073524;28;20511;-75
2022/02/20 13:38:36;;;;;;;0.40;0.40;;;9.70;1.00;;;;;;5083875;28;20816;-74